• Join FlightAware (Why Join?)
  • Login
  • US Flag 
02:40PM EDT


 

Airport Tracker/Info


-or-


 

Live Flight TrackerFlight Track Log ✈ FFT720 ✈ 06-Jul-2013 ✈ KDEN - KDCA

Flight Track Log - Related Links

Times and Time Zones

All times are in EDT time to prevent confusion due to time zone crossing. See the FFT720 flight status page for this flight to view local times or setup timezone preferences in your user account.

Time Position Orientation Groundspeed Altitude Reporting Facility
EDT Latitude Longitude Course Direction KTS MPH feet Rate Location/Type
07:31PM 39.8360 -104.6420 180° South 183 211 5,600  Level FlightAware
07:32PM 39.8090 -104.6280 158° South 194 223 6,900 1,500 Climbing FlightAware
07:33PM 39.7880 -104.6070 142° Southeast 218 251 7,200 660 Climbing FlightAware
07:33PM 39.7750 -104.5940 142° Southeast 234 269 7,400 420 Climbing FlightAware
07:33PM 39.7540 -104.5730 142° Southeast 263 303 7,500 540 Climbing FlightAware
07:34PM 39.7330 -104.5530 144° Southeast 286 329 7,800 900 Climbing FlightAware
07:34PM 39.7070 -104.5290 145° Southeast 305 351 8,200 1,620 Climbing FlightAware
07:34PM 39.6790 -104.5020 143° Southeast 306 352 9,100 2,100 Climbing FlightAware
07:35PM 39.6630 -104.4820 136° Southeast 311 358 9,600 2,100 Climbing FlightAware
07:35PM 39.6560 -104.4620 114° Southeast 310 357 10,100 2,340 Climbing FlightAware
07:35PM 39.6530 -104.4320 97° East 310 357 10,700 1,200 Climbing FlightAware
07:36PM 39.6530 -104.3580 90° East 340 391 11,200 840 Climbing FlightAware
07:36PM 39.6540 -104.2610 89° East 361 415 11,900 480 Climbing FlightAware
07:37PM 39.6600 -104.1820 84° East 355 409 11,900  Level FlightAware
07:38PM 39.6730 -104.0930 79° East 359 413 11,900 120 Level FlightAware
07:38PM 39.6860 -104.0260 76° East 357 411 12,100 780 Climbing FlightAware
07:39PM 39.6990 -104.0040 52° Northeast 359 413 12,500 1,860 Climbing FlightAware
07:39PM 39.7300 -103.9500 53° Northeast 365 420 13,500 1,800 Climbing FlightAware
07:39PM 39.7370 -103.9110 77° East 373 429 14,000 1,440 Climbing FlightAware
07:40PM 39.7460 -103.8190 83° East 388 447 14,900 1,560 Climbing FlightAware
07:41PM 39.7560 -103.7140 83° East 393 452 16,300 1,500 Climbing FlightAware
07:41PM 39.7630 -103.6370 83° East 409 471 16,900 1,260 Climbing FlightAware
07:42PM 39.7720 -103.5320 84° East 419 482 17,900 1,320 Climbing FlightAware
07:43PM 39.7820 -103.4220 83° East 428 493 18,900 1,380 Climbing FlightAware
07:43PM 39.7900 -103.3330 83° East 433 498 19,700 1,620 Climbing FlightAware
07:44PM 39.8000 -103.2220 83° East 430 495 21,000 1,500 Climbing FlightAware
07:45PM 39.8090 -103.1160 84° East 436 502 21,800 1,260 Climbing FlightAware
07:45PM 39.8170 -103.0210 84° East 437 503 22,600 1,260 Climbing FlightAware
07:46PM 39.8270 -102.9140 83° East 440 506 23,500 1,140 Climbing FlightAware
07:47PM 39.8360 -102.8040 84° East 445 512 24,200 1,020 Climbing FlightAware
07:47PM 39.8450 -102.6960 84° East 450 518 24,900 660 Climbing FlightAware
07:48PM 39.8540 -102.6000 83° East 453 521 25,100 120 Climbing FlightAware
07:49PM 39.8610 -102.5170 84° East 453 521 25,100 1,140 Level FlightAware
07:50PM 39.8740 -102.3450 84° East 468 539 26,800 1,500 Climbing FlightAware
07:50PM 39.8810 -102.2460 85° East 472 543 27,300 780 Climbing FlightAware
07:51PM 39.8900 -102.1420 84° East 476 548 27,800 600 Climbing FlightAware
07:51PM 39.9000 -102.0060 84° East 487 560 28,200 480 Climbing FlightAware
07:52PM 39.9090 -101.8880 84° East 496 571 28,500 1,020 Climbing FlightAware
07:53PM 39.9190 -101.7610 84° East 483 556 29,700 840 Climbing FlightAware
07:54PM 39.9270 -101.6600 84° East 482 555 29,700  Level FlightAware
07:54PM 39.9340 -101.5690 84° East 482 555 29,700  Level FlightAware
07:56PM 39.9510 -101.3630 84° East 482 555 29,700  Level FlightAware
07:56PM 39.9580 -101.2740 84° East 482 555 29,700 2,580 Level FlightAware
07:57PM 39.9672 -101.0925 84° East 486 559 33,000 2,280 Climbing Denver Center
07:58PM 39.9778 -100.9261 85° East 484 557 33,600 480 Climbing Denver Center
07:59PM 39.9911 -100.7281 85° East 492 566 34,100 480 Climbing Denver Center
08:00PM 40.0036 -100.5278 85° East 498 573 34,700 420 Climbing Denver Center
08:01PM 40.0150 -100.3558 85° East 498 573 35,000 120 Climbing Denver Center
08:02PM 40.0269 -100.1700 85° East 500 575 35,000  Level Denver Center
08:03PM 40.0381 -99.9814 86° East 502 578 35,000  Level Denver Center
08:04PM 40.0478 -99.8092 86° East 498 573 35,000  Level Denver Center
08:05PM 40.0578 -99.6308 86° East 496 571 35,000  Level Denver Center
08:11PM 40.1130 -98.5690 86° East 489 563 35,000  Level FlightAware
08:12PM 40.1190 -98.4580 86° East 489 563 35,000  Level FlightAware
08:12PM 40.1250 -98.3310 86° East 487 560 35,000  Level FlightAware
08:13PM 40.1310 -98.2110 86° East 487 560 35,000  Level FlightAware
08:14PM 40.1370 -98.0430 87° East 489 563 35,000  Level FlightAware
08:15PM 40.1420 -97.9250 87° East 489 563 35,000  Level FlightAware
08:15PM 40.1470 -97.7880 87° East 489 563 35,000  Level FlightAware
08:16PM 40.1550 -97.6060 87° East 489 563 35,000  Level FlightAware
08:17PM 40.1610 -97.4490 87° East 489 563 35,000  Level FlightAware
08:18PM 40.1650 -97.3200 88° East 488 562 35,000  Level FlightAware
08:19PM 40.1690 -97.2140 87° East 488 562 35,000  Level FlightAware
08:19PM 40.1740 -97.0850 87° East 487 560 35,000  Level FlightAware
08:20PM 40.1770 -96.9780 88° East 487 560 35,000  Level FlightAware
08:21PM 40.1820 -96.8460 87° East 487 560 35,000  Level FlightAware
08:21PM 40.1860 -96.7150 88° East 486 559 35,000  Level FlightAware
08:22PM 40.1890 -96.5970 88° East 485 558 35,000  Level FlightAware
08:23PM 40.1930 -96.4720 88° East 484 557 35,000  Level FlightAware
08:23PM 40.1960 -96.3750 88° East 484 557 35,000  Level FlightAware
08:24PM 40.2000 -96.2490 88° East 481 554 35,000  Level FlightAware
08:25PM 40.2140 -96.1330 81° East 478 550 35,000  Level FlightAware
08:25PM 40.2330 -96.0310 76° East 478 550 35,000  Level FlightAware
08:26PM 40.2560 -95.9090 76° East 478 550 35,000  Level FlightAware
08:27PM 40.2770 -95.7940 77° East 477 549 35,000  Level FlightAware
08:27PM 40.2970 -95.6840 77° East 476 548 35,000  Level FlightAware
08:28PM 40.3210 -95.5550 76° East 474 545 35,000  Level FlightAware
08:29PM 40.3410 -95.4440 77° East 472 543 35,000  Level FlightAware
08:30PM 40.3630 -95.3220 77° East 471 542 35,000  Level FlightAware
08:30PM 40.3800 -95.2260 77° East 471 542 35,000  Level FlightAware
08:31PM 40.3990 -95.1160 77° East 470 541 35,000  Level FlightAware
08:32PM 40.4210 -94.9920 77° East 469 540 35,000  Level FlightAware
08:32PM 40.4370 -94.9030 77° East 469 540 35,000  Level FlightAware
08:33PM 40.4580 -94.7830 77° East 470 541 35,000  Level FlightAware
08:33PM 40.4790 -94.6640 77° East 470 541 35,000  Level FlightAware
08:34PM 40.5020 -94.5290 77° East 469 540 35,000  Level FlightAware
08:35PM 40.5200 -94.4240 77° East 468 539 35,000  Level FlightAware
08:36PM 40.5420 -94.2970 77° East 466 536 35,000  Level FlightAware
08:36PM 40.5600 -94.1880 78° East 464 534 35,000  Level FlightAware
08:37PM 40.5810 -94.0650 77° East 462 532 35,000  Level FlightAware
08:38PM 40.6050 -93.9170 78° East 462 532 35,000  Level FlightAware
08:39PM 40.6190 -93.8180 79° East 462 532 35,000  Level FlightAware
08:39PM 40.6340 -93.7160 79° East 461 531 35,000  Level FlightAware
08:40PM 40.6510 -93.6010 79° East 459 528 35,000  Level FlightAware
08:41PM 40.6700 -93.4670 79° East 455 524 35,000  Level FlightAware
08:41PM 40.6840 -93.3710 79° East 457 526 35,000  Level FlightAware
08:42PM 40.7000 -93.2610 79° East 459 528 35,000  Level FlightAware
08:43PM 40.7160 -93.1480 79° East 459 528 35,000 60 Level FlightAware
08:43PM 40.7320 -93.0340 79° East 456 525 35,100  Climbing FlightAware
08:44PM 40.7470 -92.9210 80° East 454 522 35,000 -120 Descending FlightAware
08:45PM 40.7640 -92.8030 79° East 453 521 35,000  Level FlightAware
08:46PM 40.7790 -92.6900 80° East 454 522 35,000  Level FlightAware
08:46PM 40.8000 -92.5410 79° East 452 520 35,000  Level FlightAware
08:47PM 40.8150 -92.4290 80° East 451 519 35,000  Level FlightAware
08:48PM 40.8300 -92.3140 80° East 450 518 35,000  Level FlightAware
08:48PM 40.8440 -92.2110 80° East 449 517 35,000  Level FlightAware
08:49PM 40.8600 -92.0850 80° East 447 514 35,000  Level FlightAware
08:50PM 40.8740 -91.9800 80° East 448 516 35,000  Level FlightAware
08:50PM 40.8870 -91.8790 80° East 449 517 35,000  Level FlightAware
08:51PM 40.9070 -91.7280 80° East 449 517 35,000  Level FlightAware
08:52PM 40.9190 -91.6290 81° East 448 516 35,000  Level FlightAware
08:53PM 40.9340 -91.5100 80° East 448 516 35,000  Level FlightAware
08:54PM 40.9500 -91.3860 80° East 449 517 35,000  Level FlightAware
08:54PM 40.9640 -91.2720 81° East 451 519 35,000  Level FlightAware
08:55PM 40.9780 -91.1600 81° East 451 519 35,000  Level FlightAware
08:56PM 40.9910 -91.0560 81° East 451 519 35,000  Level FlightAware
08:56PM 41.0040 -90.9480 81° East 451 519 35,000  Level FlightAware
08:57PM 41.0160 -90.8440 81° East 450 518 35,000  Level FlightAware
08:58PM 41.0290 -90.7350 81° East 446 513 35,000  Level FlightAware
08:58PM 41.0420 -90.6290 81° East 443 510 35,000  Level FlightAware
08:59PM 41.0550 -90.5160 81° East 441 507 35,000  Level FlightAware
09:00PM 41.0680 -90.4030 81° East 442 509 35,000  Level FlightAware
09:00PM 41.0820 -90.2830 81° East 445 512 35,000  Level FlightAware
09:01PM 41.0960 -90.1660 81° East 447 514 35,000  Level FlightAware
09:02PM 41.1080 -90.0580 82° East 447 514 35,000  Level FlightAware
09:02PM 41.1180 -89.9650 82° East 447 514 35,000  Level FlightAware
09:03PM 41.1310 -89.8510 81° East 448 516 35,000  Level FlightAware
09:04PM 41.1420 -89.7510 82° East 450 518 35,000  Level FlightAware
09:04PM 41.1540 -89.6410 82° East 450 518 35,000  Level FlightAware
09:05PM 41.1610 -89.5190 86° East 457 526 35,000  Level FlightAware
09:06PM 41.1620 -89.4120 89° East 456 525 35,000  Level FlightAware
09:06PM 41.1630 -89.2900 89° East 455 524 35,000  Level FlightAware
09:07PM 41.1640 -89.1720 89° East 455 524 35,000  Level FlightAware
09:08PM 41.1650 -89.0620 89° East 456 525 35,000  Level FlightAware
09:08PM 41.1660 -88.9450 89° East 453 521 35,000  Level FlightAware
09:09PM 41.1670 -88.8380 89° East 451 519 35,000  Level FlightAware
09:10PM 41.1680 -88.7270 89° East 452 520 35,000  Level FlightAware
09:10PM 41.1680 -88.6250 90° East 452 520 35,000  Level FlightAware
09:11PM 41.1690 -88.5110 89° East 452 520 35,000  Level FlightAware
09:12PM 41.1690 -88.3970 90° East 450 518 35,000  Level FlightAware
09:12PM 41.1700 -88.2810 89° East 449 517 35,000  Level FlightAware
09:13PM 41.1700 -88.1620 90° East 448 516 35,000  Level FlightAware
09:14PM 41.1700 -88.0740 90° East 447 514 35,000  Level FlightAware
09:15PM 41.1700 -87.9430 90° East 443 510 35,000  Level FlightAware
09:15PM 41.1700 -87.8330 90° East 441 507 35,000  Level FlightAware
09:16PM 41.1690 -87.7100 91° East 441 507 35,000  Level FlightAware
09:17PM 41.1690 -87.6130 90° East 442 509 35,000  Level FlightAware
09:17PM 41.1680 -87.4830 91° East 446 513 35,000  Level FlightAware
09:18PM 41.1680 -87.3740 90° East 448 516 35,000  Level FlightAware
09:19PM 41.1670 -87.2530 91° East 450 518 35,000 60 Level FlightAware
09:19PM 41.1660 -87.1410 91° East 448 516 35,100 60 Climbing FlightAware
09:20PM 41.1650 -87.0440 91° East 447 514 35,100 -120 Level FlightAware
09:21PM 41.1640 -86.9400 91° East 447 514 35,000 -120 Descending FlightAware
09:21PM 41.1630 -86.8130 91° East 446 513 35,000  Level FlightAware
09:22PM 41.1620 -86.7120 91° East 441 507 35,000  Level FlightAware
09:23PM 41.1570 -86.6030 93° East 419 482 35,000  Level FlightAware
09:23PM 41.1410 -86.5030 102° East 415 478 35,000  Level FlightAware
09:24PM 41.1180 -86.4050 107° East 419 482 35,000  Level FlightAware
09:25PM 41.0920 -86.2900 107° East 425 489 35,000  Level FlightAware
09:26PM 41.0680 -86.1910 108° East 426 490 35,000  Level FlightAware
09:26PM 41.0480 -86.0910 105° East 425 489 35,000  Level FlightAware
09:27PM 41.0240 -85.9920 108° East 423 487 35,000  Level FlightAware
09:28PM 41.0000 -85.8900 107° East 425 489 35,000  Level FlightAware
09:28PM 40.9800 -85.8070 108° East 426 490 35,000  Level FlightAware
09:29PM 40.9520 -85.6920 108° East 426 490 35,000  Level FlightAware
09:30PM 40.9270 -85.5900 108° East 426 490 35,000  Level FlightAware
09:30PM 40.9000 -85.4800 108° East 427 491 35,000  Level FlightAware
09:31PM 40.8740 -85.3730 108° East 441 507 35,000  Level FlightAware
09:32PM 40.8490 -85.2730 108° East 445 512 35,000  Level FlightAware
09:32PM 40.8250 -85.1750 108° East 446 513 35,000  Level FlightAware
09:33PM 40.7980 -85.0690 109° East 447 514 35,000  Level FlightAware
09:34PM 40.7700 -84.9550 108° East 449 517 35,000  Level FlightAware
09:34PM 40.7480 -84.8710 109° East 449 517 35,000  Level FlightAware
09:35PM 40.7190 -84.7530 108° East 451 519 35,000  Level FlightAware
09:36PM 40.6910 -84.6440 109° East 452 520 35,000  Level FlightAware
09:36PM 40.6700 -84.5580 108° East 453 521 35,000  Level FlightAware
09:37PM 40.6430 -84.4510 108° East 453 521 35,000  Level FlightAware
09:38PM 40.6120 -84.3330 109° East 453 521 35,000  Level FlightAware
09:38PM 40.5850 -84.2260 108° East 454 522 35,000  Level FlightAware
09:39PM 40.5580 -84.1190 108° East 454 522 35,000  Level FlightAware
09:40PM 40.5290 -84.0070 109° East 457 526 35,000  Level FlightAware
09:40PM 40.5000 -83.8960 109° East 458 527 35,000  Level FlightAware
09:41PM 40.4750 -83.7990 109° East 459 528 35,000  Level FlightAware
09:42PM 40.4470 -83.6930 109° East 461 531 35,000  Level FlightAware
09:42PM 40.4170 -83.5790 109° East 458 527 35,000  Level FlightAware
09:43PM 40.3920 -83.4840 109° East 457 526 35,000  Level FlightAware
09:44PM 40.3630 -83.3750 109° East 457 526 35,000  Level FlightAware
09:44PM 40.3380 -83.2810 109° East 457 526 35,000  Level FlightAware
09:45PM 40.3040 -83.1550 109° East 459 528 35,000  Level FlightAware
09:46PM 40.2760 -83.0500 109° East 462 532 35,000  Level FlightAware
09:47PM 40.2480 -82.9440 109° East 464 534 35,000  Level FlightAware
09:47PM 40.2190 -82.8380 110° East 465 535 35,000  Level FlightAware
09:48PM 40.1910 -82.7340 109° East 468 539 35,000  Level FlightAware
09:49PM 40.1610 -82.6260 110° East 469 540 35,000  Level FlightAware
09:49PM 40.1300 -82.5150 110° East 471 542 35,000  Level FlightAware
09:50PM 40.0970 -82.4060 112° Southeast 472 543 35,000  Level FlightAware
09:51PM 40.0690 -82.3100 111° Southeast 472 543 35,000  Level FlightAware
09:51PM 40.0370 -82.2030 111° Southeast 473 544 35,000  Level FlightAware
09:52PM 40.0040 -82.0950 112° Southeast 474 545 35,000  Level FlightAware
09:53PM 39.9690 -81.9770 111° Southeast 473 544 35,000  Level FlightAware
09:53PM 39.9400 -81.8830 112° Southeast 473 544 35,000  Level FlightAware
09:54PM 39.9030 -81.7580 111° Southeast 472 543 35,000  Level FlightAware
09:55PM 39.8660 -81.6370 112° Southeast 473 544 35,000  Level FlightAware
09:55PM 39.8340 -81.5320 112° Southeast 474 545 35,000  Level FlightAware
09:56PM 39.8000 -81.4210 112° Southeast 472 543 35,000  Level FlightAware
09:57PM 39.7720 -81.3310 112° Southeast 472 543 35,000  Level FlightAware
09:57PM 39.7340 -81.2100 112° Southeast 473 544 35,000  Level FlightAware
09:58PM 39.6950 -81.0840 112° Southeast 472 543 35,000  Level FlightAware
09:59PM 39.6630 -80.9820 112° Southeast 472 543 35,000  Level FlightAware
09:59PM 39.6360 -80.8940 112° Southeast 472 543 35,000  Level FlightAware
10:01PM 39.5640 -80.6670 112° Southeast 473 544 35,000  Level FlightAware
10:02PM 39.5280 -80.5520 112° Southeast 474 545 35,000 -240 Level FlightAware
10:03PM 39.4897 -80.4242 112° Southeast 469 540 34,600 -720 Descending Washington Center
10:04PM 39.4397 -80.2650 112° Southeast 536 617 33,600 -1,020 Descending Washington Center
10:05PM 39.3875 -80.1058 113° Southeast 496 571 32,700 -960 Descending Washington Center
10:06PM 39.3350 -79.9442 113° Southeast 483 556 31,700 -1,500 Descending Washington Center
10:11PM 39.2280 -79.0250 113° Southeast 461 531 23,100 -1,620 Descending FlightAware
10:12PM 39.2180 -78.9050 96° East 451 519 21,900 -1,620 Descending FlightAware
10:12PM 39.2070 -78.8020 98° East 444 511 20,900 -1,560 Descending FlightAware
10:13PM 39.1980 -78.7060 97° East 439 505 20,000 -1,620 Descending FlightAware
10:14PM 39.1870 -78.5910 97° East 434 499 18,800 -1,620 Descending FlightAware
10:14PM 39.1770 -78.4900 97° East 429 494 17,800 -1,500 Descending FlightAware
10:15PM 39.1680 -78.3980 97° East 420 483 16,900 -1,500 Descending FlightAware
10:16PM 39.1490 -78.3040 105° East 413 475 15,900 -1,440 Descending FlightAware
10:16PM 39.1230 -78.2010 108° East 405 466 14,900 -1,500 Descending FlightAware
10:17PM 39.1030 -78.1200 108° East 401 461 14,000 -1,380 Descending FlightAware
10:18PM 39.0810 -78.0340 108° East 395 455 13,200 -1,380 Descending FlightAware
10:18PM 39.0560 -77.9350 108° East 388 447 12,100 -1,440 Descending FlightAware
10:19PM 39.0330 -77.8440 108° East 376 433 11,200 -1,200 Descending FlightAware
10:20PM 39.0110 -77.7600 109° East 319 367 10,500 -1,200 Descending FlightAware
10:20PM 38.9980 -77.7110 109° East 308 354 9,800 -1,320 Descending FlightAware
10:21PM 38.9880 -77.6720 108° East 307 353 9,400 -840 Descending FlightAware
10:22PM 38.9636 -77.5858 108° East 302 348 8,700 -780 Descending Washington Center
10:23PM 38.9547 -77.4814 96° East 285 328 8,000 -1,260 Descending Washington Center
10:24PM 38.9667 -77.3667 82° East 288 331 6,100 -1,440 Descending Potomac TRACON
10:25PM 38.9667 -77.2667 90° East 257 296 4,900 -1,140 Descending Potomac TRACON
10:26PM 38.9667 -77.1833 90° East 218 251 3,900 -1,260 Descending Potomac TRACON
10:27PM 38.9333 -77.1333 131° Southeast 181 208 2,400 -1,320 Descending Potomac TRACON
10:28PM 38.9000 -77.0833 131° Southeast 165 190 1,300 -960 Descending Potomac TRACON
10:29PM 38.8833 -77.0500 123° Southeast 143 165 500 -840 Descending Potomac TRACON
10:31PM 38.8519 -77.0377 163° South  Level Estimated
10:38PM 38.8519 -77.0377 167° South  Level Estimated
10:39PM 38.8519 -77.0377 167° South  Level Estimated